Time;durP1;ratioP1;P1;durP2;ratioP2;P2;SDS_P1;SDS_P2;PMS_P1;PMS_P2;Temp;Humidity;BMP_temperature;BMP_pressure;BME280_temperature;BME280_humidity;BME280_pressure;Samples;Min_cycle;Max_cycle;Signal;HPM_P1;HPM_P2
2022/01/22 00:02:24;;;;;;;4.30;3.40;;;4.30;43.80;;;;;;10449772;28;20603;-69
2022/01/22 00:07:27;;;;;;;4.87;3.53;;;4.30;43.40;;;;;;10459005;28;20239;-69
2022/01/22 00:12:45;;;;;;;4.77;2.97;;;4.30;43.60;;;;;;10459031;28;20224;-69
2022/01/22 00:17:49;;;;;;;4.97;3.50;;;4.30;43.60;;;;;;10450258;28;20220;-69
2022/01/22 00:22:53;;;;;;;3.77;3.33;;;4.30;43.60;;;;;;10456991;28;20235;-69
2022/01/22 00:28:00;;;;;;;3.93;3.27;;;4.30;43.80;;;;;;10456881;28;20224;-69
2022/01/22 00:33:03;;;;;;;4.57;3.30;;;4.20;43.70;;;;;;10464431;28;20233;-69
2022/01/22 00:38:06;;;;;;;3.97;3.20;;;4.30;43.60;;;;;;10458635;28;20220;-69
2022/01/22 00:43:11;;;;;;;5.20;3.40;;;4.30;43.60;;;;;;10456389;28;20232;-72
2022/01/22 00:48:14;;;;;;;3.90;3.50;;;4.30;43.90;;;;;;10456876;28;20228;-72
2022/01/22 00:53:17;;;;;;;3.83;3.43;;;4.30;43.80;;;;;;10452423;28;20593;-72
2022/01/22 00:58:22;;;;;;;5.70;3.60;;;4.30;43.70;;;;;;10455320;28;20225;-71
2022/01/22 01:03:25;;;;;;;6.27;3.50;;;4.20;43.90;;;;;;10453716;28;20516;-72
2022/01/22 01:08:31;;;;;;;4.10;2.90;;;4.30;43.80;;;;;;10457769;28;20720;-72
2022/01/22 01:13:42;;;;;;;5.10;3.00;;;4.30;43.80;;;;;;10460829;28;20225;-71
2022/01/22 01:35:07;;;;;;;4.87;3.33;;;4.40;44.00;;;;;;10382483;28;20295;-70
2022/01/22 01:40:13;;;;;;;3.50;3.17;;;4.30;43.80;;;;;;10455438;28;20225;-72
2022/01/22 01:45:18;;;;;;;5.00;3.00;;;4.30;44.00;;;;;;10454397;28;20696;-71
2022/01/22 01:50:21;;;;;;;3.40;3.00;;;4.30;44.00;;;;;;10460973;28;20603;-72
2022/01/22 01:55:35;;;;;;;3.43;3.13;;;4.40;44.00;;;;;;10455162;28;20236;-71
2022/01/22 02:00:39;;;;;;;4.60;3.33;;;4.40;44.00;;;;;;10455791;28;20216;-71
2022/01/22 02:05:42;;;;;;;3.73;3.30;;;4.40;44.00;;;;;;10451980;28;20237;-66
2022/01/22 02:10:54;;;;;;;3.50;3.17;;;4.50;44.00;;;;;;10453552;28;20220;-66
2022/01/22 02:26:46;;;;;;;3.33;3.03;;;4.50;44.20;;;;;;10449238;28;20833;-66
2022/01/22 02:32:02;;;;;;;3.50;3.13;;;4.50;44.50;;;;;;10458387;28;20753;-66
2022/01/22 02:37:12;;;;;;;3.80;3.50;;;4.60;44.00;;;;;;10452382;28;20216;-66
2022/01/22 02:42:17;;;;;;;4.43;3.63;;;4.50;44.20;;;;;;10454157;28;20225;-66
2022/01/22 02:47:21;;;;;;;4.43;3.70;;;4.50;44.00;;;;;;10454794;28;20220;-67
2022/01/22 02:52:26;;;;;;;4.33;3.63;;;4.60;44.30;;;;;;10452444;28;20267;-67
2022/01/22 02:57:31;;;;;;;4.87;3.73;;;4.60;44.30;;;;;;10453203;28;20229;-66
2022/01/22 03:02:34;;;;;;;4.00;3.63;;;4.60;44.30;;;;;;10450443;28;20758;-71
2022/01/22 03:07:41;;;;;;;4.43;3.90;;;4.60;44.30;;;;;;10452148;28;20779;-71
2022/01/22 03:13:04;;;;;;;6.10;4.30;;;4.60;44.50;;;;;;10451640;28;20708;-72
2022/01/22 03:18:12;;;;;;;4.10;3.67;;;4.70;44.50;;;;;;10449967;28;20213;-72
2022/01/22 03:28:51;;;;;;;3.93;3.63;;;4.70;44.70;;;;;;10453792;28;20220;-66
2022/01/22 03:33:54;;;;;;;4.43;3.87;;;4.70;44.50;;;;;;10452985;28;20439;-67
2022/01/22 03:38:58;;;;;;;4.37;3.97;;;4.70;44.50;;;;;;10457469;28;20216;-66
2022/01/22 03:44:04;;;;;;;4.53;4.10;;;4.80;44.70;;;;;;10453068;28;20224;-67
2022/01/22 03:49:10;;;;;;;4.20;3.87;;;4.80;44.70;;;;;;10456729;28;20229;-66
2022/01/22 03:54:15;;;;;;;4.60;4.20;;;4.80;44.60;;;;;;10458423;28;20524;-66
2022/01/22 03:59:18;;;;;;;4.80;4.40;;;4.90;44.80;;;;;;10460472;28;21050;-72
2022/01/22 04:04:26;;;;;;;4.83;4.03;;;4.90;44.70;;;;;;10457421;28;20229;-72
2022/01/22 04:09:33;;;;;;;4.70;4.30;;;4.90;44.50;;;;;;10461442;28;20256;-72
2022/01/22 04:14:44;;;;;;;5.30;4.80;;;5.00;44.70;;;;;;10458773;28;20232;-72
2022/01/22 04:25:11;;;;;;;5.50;5.00;;;5.00;44.70;;;;;;10456340;28;20225;-72
2022/01/22 04:30:14;;;;;;;5.50;4.93;;;5.00;45.00;;;;;;10461065;28;20888;-72
2022/01/22 04:35:18;;;;;;;5.00;4.53;;;5.00;44.80;;;;;;10455450;28;20591;-71
2022/01/22 04:40:23;;;;;;;6.07;5.47;;;5.00;44.80;;;;;;10456406;28;20232;-72
2022/01/22 04:45:38;;;;;;;7.87;6.67;;;5.00;45.10;;;;;;10458389;28;20236;-72
2022/01/22 04:56:04;;;;;;;6.03;5.53;;;5.00;45.00;;;;;;10458704;28;20220;-72
2022/01/22 05:01:07;;;;;;;5.57;5.07;;;5.00;45.20;;;;;;10454682;28;20221;-72
2022/01/22 05:06:10;;;;;;;6.77;6.10;;;5.10;45.00;;;;;;10455002;28;20233;-72
2022/01/22 05:11:16;;;;;;;6.00;5.47;;;5.10;45.20;;;;;;10456043;28;20217;-66
2022/01/22 05:16:20;;;;;;;5.53;5.13;;;5.20;45.20;;;;;;10455157;28;20224;-67
2022/01/22 05:21:25;;;;;;;6.17;5.67;;;5.20;45.10;;;;;;10454813;28;20244;-67
2022/01/22 05:37:34;;;;;;;6.17;5.57;;;5.20;45.30;;;;;;10387660;28;20217;-70
2022/01/22 05:42:39;;;;;;;6.23;5.63;;;5.10;45.20;;;;;;10434028;28;20233;-70
2022/01/22 05:47:44;;;;;;;6.17;5.67;;;5.10;45.50;;;;;;10456958;28;20217;-70
2022/01/22 05:52:55;;;;;;;6.93;6.43;;;5.10;45.40;;;;;;10455329;28;20224;-70
2022/01/22 06:03:21;;;;;;;6.60;6.10;;;5.10;45.60;;;;;;10448911;28;20624;-70
2022/01/22 06:08:29;;;;;;;6.27;5.77;;;5.10;45.50;;;;;;10451345;28;20668;-70
2022/01/22 06:13:43;;;;;;;6.83;6.23;;;5.10;45.50;;;;;;10457643;28;20224;-66
2022/01/22 06:18:47;;;;;;;6.70;6.10;;;5.10;45.70;;;;;;10456228;28;20663;-67
2022/01/22 06:23:50;;;;;;;6.50;5.90;;;5.10;45.90;;;;;;10449299;28;20736;-66
2022/01/22 06:28:55;;;;;;;6.30;5.80;;;5.10;45.50;;;;;;10459102;28;20221;-66
2022/01/22 06:33:58;;;;;;;6.33;5.77;;;5.10;45.80;;;;;;10448699;28;20227;-67
2022/01/22 06:39:12;;;;;;;6.10;5.60;;;5.10;45.90;;;;;;10453368;28;20232;-69
2022/01/22 06:44:18;;;;;;;7.00;6.40;;;5.10;45.80;;;;;;10451688;28;20604;-67
2022/01/22 06:49:22;;;;;;;6.80;6.20;;;5.10;46.10;;;;;;10446809;28;21230;-67
2022/01/22 06:54:25;;;;;;;6.90;6.30;;;5.10;45.80;;;;;;10451212;28;20237;-67
2022/01/22 06:59:29;;;;;;;5.80;5.30;;;5.10;45.70;;;;;;10448049;28;20239;-70
2022/01/22 07:04:36;;;;;;;6.33;5.83;;;5.10;45.80;;;;;;10448826;28;20225;-72
2022/01/22 07:09:40;;;;;;;7.17;6.57;;;5.20;45.70;;;;;;10452589;28;20232;-70
2022/01/22 07:14:48;;;;;;;6.70;6.20;;;5.20;45.80;;;;;;10451920;28;20233;-70
2022/01/22 07:19:53;;;;;;;7.43;6.73;;;5.20;46.00;;;;;;10449183;28;20721;-70
2022/01/22 07:24:56;;;;;;;6.70;6.10;;;5.20;45.90;;;;;;10448438;28;20593;-70
2022/01/22 07:30:01;;;;;;;6.30;5.80;;;5.20;45.80;;;;;;10452706;28;20220;-67
2022/01/22 07:35:05;;;;;;;7.03;6.43;;;5.20;45.90;;;;;;10445771;28;20732;-67
2022/01/22 07:40:10;;;;;;;6.67;6.07;;;5.20;45.90;;;;;;10453710;28;20572;-67
2022/01/22 07:45:15;;;;;;;7.00;6.50;;;5.20;46.10;;;;;;10453946;28;20231;-66
2022/01/22 07:50:19;;;;;;;7.03;6.43;;;5.20;46.10;;;;;;10446237;28;20228;-67
2022/01/22 07:55:22;;;;;;;6.87;6.30;;;5.20;46.00;;;;;;10453284;28;20233;-67
2022/01/22 08:00:27;;;;;;;6.77;6.17;;;5.20;45.90;;;;;;10451338;28;20240;-67
2022/01/22 08:05:30;;;;;;;6.43;5.90;;;5.20;46.20;;;;;;10445735;28;20724;-67
2022/01/22 08:10:33;;;;;;;6.43;5.83;;;5.30;46.00;;;;;;10453827;28;20220;-67
2022/01/22 08:15:38;;;;;;;6.80;6.20;;;5.30;45.90;;;;;;10450230;28;20243;-67
2022/01/22 08:20:41;;;;;;;7.53;6.83;;;5.30;46.10;;;;;;10449104;28;20221;-67
2022/01/22 08:25:46;;;;;;;7.17;6.57;;;5.30;46.20;;;;;;10456777;28;20234;-71
2022/01/22 08:30:55;;;;;;;7.07;6.47;;;5.30;45.90;;;;;;10458666;28;20224;-71
2022/01/22 08:36:00;;;;;;;7.67;6.63;;;5.40;46.30;;;;;;10455604;28;20225;-71
2022/01/22 08:41:03;;;;;;;7.57;6.87;;;5.40;45.90;;;;;;10456415;28;20225;-70
2022/01/22 08:46:08;;;;;;;6.93;6.43;;;5.40;45.90;;;;;;10453630;28;20231;-70
2022/01/22 08:51:12;;;;;;;8.30;7.60;;;5.40;46.10;;;;;;10454765;28;20229;-70
2022/01/22 08:56:22;;;;;;;11.30;10.00;;;5.40;46.20;;;;;;10450614;28;20314;-71
2022/01/22 09:01:27;;;;;;;12.90;11.53;;;5.50;46.10;;;;;;10457938;28;20225;-70
2022/01/22 09:06:30;;;;;;;12.17;10.30;;;5.50;46.20;;;;;;10457077;28;20243;-71
2022/01/22 09:11:34;;;;;;;8.57;7.67;;;5.50;47.00;;;;;;10455814;28;20228;-71
2022/01/22 09:16:39;;;;;;;10.10;9.00;;;5.50;46.00;;;;;;10452607;28;20232;-70
2022/01/22 09:21:46;;;;;;;7.90;7.20;;;5.50;46.00;;;;;;10452857;28;20296;-70
2022/01/22 09:26:50;;;;;;;9.63;8.73;;;5.60;46.40;;;;;;10454688;28;20727;-70
2022/01/22 09:31:55;;;;;;;8.23;6.80;;;5.60;46.30;;;;;;10453045;28;20232;-71
2022/01/22 09:36:58;;;;;;;7.07;6.47;;;5.60;46.30;;;;;;10452946;28;20307;-71
2022/01/22 09:42:02;;;;;;;7.20;6.50;;;5.60;46.00;;;;;;10457613;28;20424;-72
2022/01/22 09:47:09;;;;;;;6.40;5.90;;;5.60;46.20;;;;;;10459121;28;20225;-72
2022/01/22 09:52:12;;;;;;;6.97;6.37;;;5.60;46.40;;;;;;10451777;28;20787;-71
2022/01/22 09:57:16;;;;;;;7.13;6.53;;;5.60;47.10;;;;;;10450419;28;20227;-72
2022/01/22 10:02:22;;;;;;;6.73;6.13;;;5.60;46.20;;;;;;10450146;28;20236;-72
2022/01/22 10:07:26;;;;;;;7.07;6.47;;;5.60;46.50;;;;;;10449023;28;20229;-72
2022/01/22 10:12:31;;;;;;;7.00;6.40;;;5.60;46.10;;;;;;10458566;28;20587;-72
2022/01/22 10:17:50;;;;;;;7.77;7.07;;;5.60;46.10;;;;;;10453842;28;20370;-73
2022/01/22 10:22:55;;;;;;;6.77;6.27;;;5.60;46.80;;;;;;10458697;28;20235;-72
2022/01/22 10:28:00;;;;;;;6.37;5.87;;;5.70;46.20;;;;;;10450578;28;20747;-73
2022/01/22 10:33:21;;;;;;;7.23;6.53;;;5.70;46.10;;;;;;10449956;28;20614;-72
2022/01/22 10:38:24;;;;;;;7.07;6.47;;;5.70;46.30;;;;;;10453752;28;20232;-73
2022/01/22 10:43:31;;;;;;;7.13;6.43;;;5.70;45.90;;;;;;10452285;28;20227;-73
2022/01/22 10:48:36;;;;;;;7.13;6.43;;;5.70;46.20;;;;;;10457459;28;20251;-77
2022/01/22 10:53:45;;;;;;;6.47;5.97;;;5.70;46.60;;;;;;10452777;28;20603;-74
2022/01/22 10:58:56;;;;;;;7.23;6.63;;;5.70;46.70;;;;;;10457025;28;20707;-71
2022/01/22 11:04:09;;;;;;;6.67;6.07;;;5.80;46.60;;;;;;10453066;28;20980;-71
2022/01/22 11:09:12;;;;;;;6.93;6.33;;;5.80;47.30;;;;;;10452020;28;20699;-71
2022/01/22 11:14:19;;;;;;;6.77;6.23;;;5.90;46.00;;;;;;10447630;23;20242;-76
2022/01/22 11:19:30;;;;;;;7.47;6.77;;;5.90;46.30;;;;;;10428086;28;20716;-75
2022/01/22 11:24:35;;;;;;;8.73;6.60;;;5.90;46.30;;;;;;10459769;28;20582;-75
2022/01/22 11:29:42;;;;;;;6.77;6.13;;;5.90;46.20;;;;;;10475472;28;20230;-77
2022/01/22 11:34:49;;;;;;;6.87;6.27;;;5.90;46.30;;;;;;10466136;28;20216;-75
2022/01/22 11:40:11;;;;;;;7.13;6.53;;;5.90;46.30;;;;;;10460440;28;20236;-75
2022/01/22 11:45:26;;;;;;;8.03;7.33;;;5.90;46.50;;;;;;10471250;28;20227;-75
2022/01/22 11:50:31;;;;;;;7.03;6.43;;;5.90;46.50;;;;;;10472326;28;20243;-76
2022/01/22 11:55:34;;;;;;;7.63;6.93;;;5.90;46.10;;;;;;10469129;28;20248;-77
2022/01/22 12:00:41;;;;;;;7.10;6.53;;;5.90;46.70;;;;;;10470651;28;20239;-78
2022/01/22 12:06:09;;;;;;;8.27;7.47;;;6.00;46.50;;;;;;10474565;28;20809;-78
2022/01/22 12:17:02;;;;;;;7.80;7.10;;;6.00;46.90;;;;;;10473035;28;20987;-77
2022/01/22 12:22:30;;;;;;;7.73;7.00;;;6.00;46.20;;;;;;10477392;28;21119;-77
2022/01/22 12:27:46;;;;;;;7.90;7.13;;;6.00;47.40;;;;;;10475141;28;20591;-77
2022/01/22 12:32:52;;;;;;;8.13;7.37;;;6.00;47.00;;;;;;10473136;28;20224;-77
2022/01/22 12:38:16;;;;;;;7.73;7.03;;;6.00;46.50;;;;;;10470942;28;20229;-78
2022/01/22 12:43:28;;;;;;;8.50;7.70;;;6.00;46.90;;;;;;10476284;28;20209;-77
2022/01/22 12:48:33;;;;;;;7.67;6.97;;;6.00;46.30;;;;;;10473161;28;20224;-77
2022/01/22 12:53:48;;;;;;;7.73;7.03;;;6.00;46.30;;;;;;10474405;28;20221;-77
2022/01/22 13:05:15;;;;;;;6.97;6.37;;;6.00;46.90;;;;;;10459034;28;20275;-77
2022/01/22 13:10:22;;;;;;;7.00;6.40;;;6.00;46.40;;;;;;10460909;28;20234;-77
2022/01/22 13:15:27;;;;;;;7.03;6.47;;;6.00;46.50;;;;;;10465226;28;20302;-77
2022/01/22 13:20:34;;;;;;;7.40;6.70;;;6.10;46.30;;;;;;10470943;28;20259;-77
2022/01/22 13:25:40;;;;;;;7.37;6.70;;;6.00;46.40;;;;;;10468771;28;20224;-77
2022/01/22 13:30:50;;;;;;;7.23;6.63;;;6.00;46.60;;;;;;10462852;23;20226;-71
2022/01/22 13:36:01;;;;;;;7.80;7.10;;;6.00;46.40;;;;;;10435247;28;20607;-72
2022/01/22 13:52:02;;;;;;;7.60;6.90;;;6.00;46.70;;;;;;10424826;28;20236;-72
2022/01/22 13:57:09;;;;;;;7.80;7.10;;;5.90;46.90;;;;;;10422201;28;20218;-72
2022/01/22 14:02:28;;;;;;;7.10;6.50;;;5.90;46.80;;;;;;10421636;28;20226;-72
2022/01/22 14:07:37;;;;;;;6.10;5.57;;;5.90;46.70;;;;;;10416630;28;20233;-73
2022/01/22 14:12:56;;;;;;;6.30;5.73;;;5.90;46.70;;;;;;10418390;28;20444;-72
2022/01/22 14:18:12;;;;;;;6.03;5.53;;;5.90;47.40;;;;;;10418939;28;20229;-72
2022/01/22 14:23:17;;;;;;;5.53;5.03;;;5.90;46.70;;;;;;10468625;28;20228;-72
2022/01/22 14:28:23;;;;;;;6.33;5.77;;;5.90;46.80;;;;;;10471356;28;20232;-72
2022/01/22 14:33:26;;;;;;;5.83;5.33;;;5.90;46.80;;;;;;10463580;28;20337;-72
2022/01/22 14:38:41;;;;;;;5.60;5.10;;;5.90;46.60;;;;;;10455788;28;20252;-72
2022/01/22 14:49:19;;;;;;;6.80;6.20;;;6.00;47.40;;;;;;10464891;28;20221;-72
2022/01/22 14:54:24;;;;;;;6.77;6.17;;;6.00;46.70;;;;;;10469937;28;20286;-72
2022/01/22 14:59:31;;;;;;;6.07;5.47;;;6.00;46.70;;;;;;10471004;28;20592;-72
2022/01/22 15:04:38;;;;;;;6.10;5.60;;;6.00;46.90;;;;;;10455790;28;20217;-72
2022/01/22 15:09:43;;;;;;;5.63;5.13;;;6.00;46.80;;;;;;10461371;28;20221;-72
2022/01/22 15:14:50;;;;;;;5.50;5.00;;;6.00;46.90;;;;;;10455687;28;20236;-72
2022/01/22 15:19:53;;;;;;;6.67;6.03;;;6.10;47.10;;;;;;10462469;28;20217;-71
2022/01/22 15:25:03;;;;;;;6.37;5.80;;;6.10;46.80;;;;;;10457442;28;20231;-70
2022/01/22 15:30:20;;;;;;;6.90;6.23;;;6.10;46.80;;;;;;10455924;28;20699;-70
2022/01/22 15:35:24;;;;;;;5.80;5.30;;;6.10;46.90;;;;;;10463899;28;20254;-70
2022/01/22 15:40:31;;;;;;;6.13;5.63;;;6.10;46.90;;;;;;10466001;28;20232;-71
2022/01/22 15:45:37;;;;;;;5.77;5.33;;;6.10;47.10;;;;;;10462831;28;20231;-70
2022/01/22 15:50:40;;;;;;;5.83;5.33;;;6.10;47.10;;;;;;10463720;28;20251;-71
2022/01/22 15:55:49;;;;;;;6.77;6.17;;;6.20;46.80;;;;;;10466803;28;21490;-70
2022/01/22 16:00:53;;;;;;;6.37;5.87;;;6.20;46.90;;;;;;10468942;28;20232;-70
2022/01/22 16:06:07;;;;;;;6.83;6.30;;;6.20;46.90;;;;;;10466575;28;21033;-70
2022/01/22 16:11:10;;;;;;;6.83;6.23;;;6.20;47.60;;;;;;10469391;28;20732;-70
2022/01/22 16:16:38;;;;;;;8.23;7.43;;;6.20;46.70;;;;;;10469204;28;20239;-70
2022/01/22 16:21:42;;;;;;;7.90;7.20;;;6.20;47.10;;;;;;10465404;28;20490;-70
2022/01/22 16:26:45;;;;;;;7.67;7.07;;;6.20;46.90;;;;;;10466930;28;20232;-70
2022/01/22 16:31:50;;;;;;;7.07;6.47;;;6.10;46.90;;;;;;10465631;28;20224;-70
2022/01/22 16:36:53;;;;;;;7.27;6.60;;;6.10;47.10;;;;;;10467089;28;20306;-70
2022/01/22 16:42:03;;;;;;;6.30;5.80;;;6.10;47.10;;;;;;10464720;28;20232;-71
2022/01/22 16:58:00;;;;;;;7.30;6.70;;;6.10;47.20;;;;;;10431194;28;20597;-71
2022/01/22 17:03:07;;;;;;;6.83;6.33;;;6.10;47.10;;;;;;10463849;28;20225;-71
2022/01/22 17:08:28;;;;;;;6.53;6.00;;;6.10;47.30;;;;;;10463474;28;20233;-71
2022/01/22 17:18:56;;;;;;;7.90;7.20;;;6.00;47.20;;;;;;10467191;28;20224;-71
2022/01/22 17:23:59;;;;;;;8.37;7.57;;;6.10;47.40;;;;;;10461687;28;20220;-71
2022/01/22 17:29:02;;;;;;;8.17;7.47;;;6.10;47.20;;;;;;10467365;28;20216;-71
2022/01/22 17:34:07;;;;;;;9.20;8.40;;;6.10;47.20;;;;;;10464054;28;20228;-71
2022/01/22 17:39:13;;;;;;;9.03;8.23;;;6.10;47.40;;;;;;10464131;28;20217;-71
2022/01/22 17:44:21;;;;;;;9.33;8.53;;;6.10;47.40;;;;;;10462149;28;20228;-71
2022/01/22 17:49:26;;;;;;;9.47;8.60;;;6.10;47.80;;;;;;10468957;28;20581;-70
2022/01/22 17:54:29;;;;;;;9.87;8.87;;;6.00;47.40;;;;;;10464955;28;20235;-71
2022/01/22 17:59:35;;;;;;;9.73;8.83;;;6.10;47.60;;;;;;10459760;28;20700;-71
2022/01/22 18:04:42;;;;;;;11.13;10.03;;;6.10;47.40;;;;;;10466664;28;20228;-71
2022/01/22 18:09:45;;;;;;;11.00;10.00;;;6.10;47.80;;;;;;10461670;28;20217;-71
2022/01/22 18:14:48;;;;;;;11.93;10.37;;;6.10;47.40;;;;;;10468885;28;20484;-71
2022/01/22 18:19:53;;;;;;;10.73;9.73;;;6.10;47.50;;;;;;10465281;28;20220;-71
2022/01/22 18:24:56;;;;;;;11.40;10.23;;;6.10;47.60;;;;;;10468628;28;20282;-70
2022/01/22 18:29:59;;;;;;;10.80;9.80;;;6.10;47.60;;;;;;10465292;28;20726;-70
2022/01/22 18:35:04;;;;;;;11.50;10.50;;;6.10;47.60;;;;;;10462919;28;20232;-69
2022/01/22 18:40:08;;;;;;;11.53;10.50;;;6.10;47.80;;;;;;10468580;28;20224;-69
2022/01/22 18:45:12;;;;;;;10.90;9.90;;;6.10;47.60;;;;;;10464664;28;20723;-70
2022/01/22 18:50:18;;;;;;;10.00;9.10;;;6.20;47.50;;;;;;10461067;28;20242;-69
2022/01/22 18:55:22;;;;;;;11.70;10.70;;;6.20;47.60;;;;;;10463758;28;20236;-70
2022/01/22 19:00:26;;;;;;;10.90;9.80;;;6.20;47.40;;;;;;10468784;28;20589;-70
2022/01/22 19:05:31;;;;;;;10.97;9.97;;;6.20;47.40;;;;;;10461826;28;20573;-70
2022/01/22 19:10:35;;;;;;;10.67;9.73;;;6.20;47.40;;;;;;10460654;28;20496;-70
2022/01/22 19:15:38;;;;;;;11.33;10.23;;;6.20;47.40;;;;;;10465299;28;20216;-70
2022/01/22 19:20:44;;;;;;;10.67;9.77;;;6.20;47.40;;;;;;10460066;28;20727;-70
2022/01/22 19:26:04;;;;;;;11.53;10.33;;;6.20;47.50;;;;;;10458755;28;20727;-70
2022/01/22 19:31:08;;;;;;;11.07;10.00;;;6.20;47.40;;;;;;10459818;28;20247;-70
2022/01/22 19:36:14;;;;;;;12.20;11.00;;;6.20;47.40;;;;;;10457732;28;20228;-70
2022/01/22 19:41:24;;;;;;;12.27;11.10;;;6.20;47.70;;;;;;10467073;28;20239;-70
2022/01/22 19:46:28;;;;;;;11.93;10.83;;;6.20;47.60;;;;;;10461356;28;20605;-70
2022/01/22 19:51:33;;;;;;;11.90;10.73;;;6.20;47.50;;;;;;10462034;28;20232;-70
2022/01/22 19:56:36;;;;;;;12.43;11.23;;;6.20;47.70;;;;;;10459546;28;20225;-70
2022/01/22 20:01:39;;;;;;;12.73;11.53;;;6.20;47.40;;;;;;10459808;28;20232;-70
2022/01/22 20:06:44;;;;;;;12.50;11.30;;;6.20;47.50;;;;;;10450167;28;20220;-70
2022/01/22 20:11:48;;;;;;;12.10;11.00;;;6.20;47.60;;;;;;10458261;28;20232;-70
2022/01/22 20:16:53;;;;;;;10.57;9.67;;;6.20;47.60;;;;;;10453685;28;20259;-70
2022/01/22 20:21:57;;;;;;;11.37;10.33;;;6.20;47.50;;;;;;10462371;28;20923;-70
2022/01/22 20:27:23;;;;;;;10.20;9.27;;;6.30;47.70;;;;;;10459788;28;20227;-71
2022/01/22 20:32:27;;;;;;;9.70;8.90;;;6.30;47.50;;;;;;10458278;28;20275;-70
2022/01/22 20:37:31;;;;;;;9.87;8.97;;;6.30;47.50;;;;;;10463476;28;20216;-70
2022/01/22 20:42:34;;;;;;;10.53;9.53;;;6.30;47.50;;;;;;10461646;28;20232;-71
2022/01/22 20:47:58;;;;;;;10.70;9.70;;;6.30;47.40;;;;;;10459524;28;20220;-70
2022/01/22 20:53:07;;;;;;;10.80;9.60;;;6.30;47.60;;;;;;10460852;28;20242;-70
2022/01/22 20:58:19;;;;;;;11.73;10.63;;;6.30;48.30;;;;;;10460096;28;20561;-70
2022/01/22 21:03:22;;;;;;;11.30;10.20;;;6.30;47.80;;;;;;10464448;28;20275;-71
2022/01/22 21:08:31;;;;;;;11.27;10.20;;;6.30;47.70;;;;;;10464300;28;20545;-71
2022/01/22 21:13:36;;;;;;;11.27;10.27;;;6.30;47.90;;;;;;10461746;28;20228;-71
2022/01/22 21:18:39;;;;;;;11.10;10.10;;;6.40;47.70;;;;;;10462146;28;20225;-70
2022/01/22 21:23:43;;;;;;;10.87;9.83;;;6.40;47.70;;;;;;10460048;28;20232;-70
2022/01/22 21:28:49;;;;;;;12.17;10.97;;;6.40;47.80;;;;;;10454332;28;20279;-69
2022/01/22 21:33:55;;;;;;;12.43;11.27;;;6.40;47.80;;;;;;10459963;28;20235;-71
2022/01/22 21:44:23;;;;;;;13.80;12.43;;;6.40;47.80;;;;;;10461343;28;20239;-71
2022/01/22 21:49:31;;;;;;;14.20;12.80;;;6.40;47.60;;;;;;10467308;28;20228;-71
2022/01/22 21:54:36;;;;;;;14.33;12.83;;;6.50;47.70;;;;;;10458741;28;20237;-72
2022/01/22 21:59:39;;;;;;;14.43;13.07;;;6.50;47.90;;;;;;10459321;28;20220;-71
2022/01/22 22:04:48;;;;;;;14.97;12.20;;;6.50;47.70;;;;;;10457003;28;20220;-71
2022/01/22 22:09:53;;;;;;;14.43;12.70;;;6.50;48.00;;;;;;10456492;28;20320;-71
2022/01/22 22:14:56;;;;;;;17.03;15.27;;;6.50;48.00;;;;;;10455043;28;20220;-70
2022/01/22 22:19:59;;;;;;;13.33;12.03;;;6.50;48.90;;;;;;10452114;28;20227;-71
2022/01/22 22:25:07;;;;;;;16.27;14.07;;;6.50;48.00;;;;;;10454761;28;20295;-70
2022/01/22 22:30:10;;;;;;;15.93;14.20;;;6.50;48.30;;;;;;10454020;28;20224;-70
2022/01/22 22:35:14;;;;;;;16.47;14.70;;;6.40;48.20;;;;;;10463261;28;20245;-70
2022/01/22 22:40:20;;;;;;;14.20;12.70;;;6.40;48.20;;;;;;10459965;28;20253;-71
2022/01/22 22:45:26;;;;;;;15.00;13.47;;;6.40;48.30;;;;;;10459057;28;20296;-69
2022/01/22 22:50:30;;;;;;;14.47;13.00;;;6.40;48.50;;;;;;10459189;28;20224;-69
2022/01/22 22:55:39;;;;;;;15.13;13.53;;;6.50;48.20;;;;;;10454660;28;20224;-71
2022/01/22 23:00:46;;;;;;;15.27;13.77;;;6.40;48.50;;;;;;10457040;28;20255;-71
2022/01/22 23:05:51;;;;;;;14.33;12.93;;;6.40;48.70;;;;;;10457622;28;20537;-70
2022/01/22 23:10:56;;;;;;;14.67;13.23;;;6.50;48.40;;;;;;10461607;28;20232;-70
2022/01/22 23:16:03;;;;;;;14.00;12.70;;;6.50;48.60;;;;;;10463403;28;20228;-69
2022/01/22 23:21:17;;;;;;;13.73;12.33;;;6.50;48.20;;;;;;10458787;28;20236;-70
2022/01/22 23:26:21;;;;;;;14.30;12.90;;;6.50;48.30;;;;;;10462161;28;20751;-70
2022/01/22 23:31:32;;;;;;;14.47;13.07;;;6.50;48.30;;;;;;10459231;28;20239;-70
2022/01/22 23:58:16;;;;;;;13.40;12.10;;;6.60;48.10;;;;;;10471858;28;20224;-70
